sensor_id;sensor_type;location;lat;lon;timestamp;P1;durP1;ratioP1;P2;durP2;ratioP2
7076;SDS011;3579;48.956;9.154;2022-08-19T00:01:31;4.03;;;3.50;;
7076;SDS011;3579;48.956;9.154;2022-08-19T00:03:59;4.17;;;3.77;;
7076;SDS011;3579;48.956;9.154;2022-08-19T00:06:28;3.97;;;3.53;;
7076;SDS011;3579;48.956;9.154;2022-08-19T00:08:55;3.97;;;3.67;;
7076;SDS011;3579;48.956;9.154;2022-08-19T00:11:23;4.13;;;3.73;;
7076;SDS011;3579;48.956;9.154;2022-08-19T00:13:53;5.00;;;4.00;;
7076;SDS011;3579;48.956;9.154;2022-08-19T00:16:20;4.03;;;3.60;;
7076;SDS011;3579;48.956;9.154;2022-08-19T00:18:46;4.17;;;3.73;;
7076;SDS011;3579;48.956;9.154;2022-08-19T00:21:13;3.53;;;3.23;;
7076;SDS011;3579;48.956;9.154;2022-08-19T00:23:40;4.30;;;3.70;;
7076;SDS011;3579;48.956;9.154;2022-08-19T00:26:06;3.83;;;3.33;;
7076;SDS011;3579;48.956;9.154;2022-08-19T00:28:33;3.90;;;3.53;;
7076;SDS011;3579;48.956;9.154;2022-08-19T00:31:01;3.63;;;3.33;;
7076;SDS011;3579;48.956;9.154;2022-08-19T00:33:28;3.70;;;3.30;;
7076;SDS011;3579;48.956;9.154;2022-08-19T00:35:58;3.80;;;3.50;;
7076;SDS011;3579;48.956;9.154;2022-08-19T00:38:30;4.50;;;3.70;;
7076;SDS011;3579;48.956;9.154;2022-08-19T00:40:56;3.90;;;3.50;;
7076;SDS011;3579;48.956;9.154;2022-08-19T00:43:22;4.17;;;3.67;;
7076;SDS011;3579;48.956;9.154;2022-08-19T00:45:51;3.80;;;3.40;;
7076;SDS011;3579;48.956;9.154;2022-08-19T00:48:18;4.33;;;3.70;;
7076;SDS011;3579;48.956;9.154;2022-08-19T00:50:44;3.80;;;3.40;;
7076;SDS011;3579;48.956;9.154;2022-08-19T00:53:12;4.07;;;3.73;;
7076;SDS011;3579;48.956;9.154;2022-08-19T00:55:41;4.40;;;3.50;;
7076;SDS011;3579;48.956;9.154;2022-08-19T00:58:12;3.90;;;3.50;;
7076;SDS011;3579;48.956;9.154;2022-08-19T01:00:40;3.87;;;3.57;;
7076;SDS011;3579;48.956;9.154;2022-08-19T01:03:07;3.90;;;3.30;;
7076;SDS011;3579;48.956;9.154;2022-08-19T01:05:35;4.13;;;3.83;;
7076;SDS011;3579;48.956;9.154;2022-08-19T01:08:05;4.07;;;3.67;;
7076;SDS011;3579;48.956;9.154;2022-08-19T01:10:37;3.70;;;3.40;;
7076;SDS011;3579;48.956;9.154;2022-08-19T01:13:07;3.60;;;3.13;;
7076;SDS011;3579;48.956;9.154;2022-08-19T01:15:34;3.77;;;3.47;;
7076;SDS011;3579;48.956;9.154;2022-08-19T01:18:06;3.67;;;3.37;;
7076;SDS011;3579;48.956;9.154;2022-08-19T01:20:34;3.77;;;3.23;;
7076;SDS011;3579;48.956;9.154;2022-08-19T01:23:01;3.70;;;3.40;;
7076;SDS011;3579;48.956;9.154;2022-08-19T01:25:41;3.73;;;3.43;;
7076;SDS011;3579;48.956;9.154;2022-08-19T01:28:20;3.77;;;3.40;;
7076;SDS011;3579;48.956;9.154;2022-08-19T01:30:48;4.23;;;3.90;;
7076;SDS011;3579;48.956;9.154;2022-08-19T01:33:15;3.67;;;3.37;;
7076;SDS011;3579;48.956;9.154;2022-08-19T01:35:41;4.43;;;4.00;;
7076;SDS011;3579;48.956;9.154;2022-08-19T01:38:08;3.83;;;3.53;;
7076;SDS011;3579;48.956;9.154;2022-08-19T01:40:44;3.73;;;3.37;;
7076;SDS011;3579;48.956;9.154;2022-08-19T01:43:10;3.80;;;3.40;;
7076;SDS011;3579;48.956;9.154;2022-08-19T01:45:36;3.33;;;3.00;;
7076;SDS011;3579;48.956;9.154;2022-08-19T01:48:06;4.30;;;3.17;;
7076;SDS011;3579;48.956;9.154;2022-08-19T01:50:32;3.57;;;3.23;;
7076;SDS011;3579;48.956;9.154;2022-08-19T01:53:00;3.97;;;3.50;;
7076;SDS011;3579;48.956;9.154;2022-08-19T01:55:28;4.33;;;3.60;;
7076;SDS011;3579;48.956;9.154;2022-08-19T01:57:57;4.23;;;3.70;;
7076;SDS011;3579;48.956;9.154;2022-08-19T02:00:25;3.77;;;3.37;;
7076;SDS011;3579;48.956;9.154;2022-08-19T02:02:53;3.43;;;3.13;;
7076;SDS011;3579;48.956;9.154;2022-08-19T02:05:19;4.07;;;3.67;;
7076;SDS011;3579;48.956;9.154;2022-08-19T02:07:47;3.33;;;3.03;;
7076;SDS011;3579;48.956;9.154;2022-08-19T02:10:14;5.10;;;3.50;;
7076;SDS011;3579;48.956;9.154;2022-08-19T02:12:45;3.90;;;3.50;;
7076;SDS011;3579;48.956;9.154;2022-08-19T02:15:11;3.50;;;3.20;;
7076;SDS011;3579;48.956;9.154;2022-08-19T02:17:37;3.83;;;3.47;;
7076;SDS011;3579;48.956;9.154;2022-08-19T02:20:04;4.03;;;3.30;;
7076;SDS011;3579;48.956;9.154;2022-08-19T02:22:32;4.43;;;3.23;;
7076;SDS011;3579;48.956;9.154;2022-08-19T02:24:58;4.07;;;3.33;;
7076;SDS011;3579;48.956;9.154;2022-08-19T02:27:24;3.40;;;3.10;;
7076;SDS011;3579;48.956;9.154;2022-08-19T02:29:51;3.50;;;3.27;;
7076;SDS011;3579;48.956;9.154;2022-08-19T02:32:17;3.90;;;3.40;;
7076;SDS011;3579;48.956;9.154;2022-08-19T02:34:45;3.67;;;3.30;;
7076;SDS011;3579;48.956;9.154;2022-08-19T02:37:12;3.83;;;3.53;;
7076;SDS011;3579;48.956;9.154;2022-08-19T02:39:57;3.43;;;3.13;;
7076;SDS011;3579;48.956;9.154;2022-08-19T02:42:24;3.80;;;3.50;;
7076;SDS011;3579;48.956;9.154;2022-08-19T02:44:50;3.50;;;3.20;;
7076;SDS011;3579;48.956;9.154;2022-08-19T02:47:17;4.07;;;3.57;;
7076;SDS011;3579;48.956;9.154;2022-08-19T02:49:44;3.60;;;3.30;;
7076;SDS011;3579;48.956;9.154;2022-08-19T02:52:10;3.73;;;3.40;;
7076;SDS011;3579;48.956;9.154;2022-08-19T02:54:37;3.60;;;3.30;;
7076;SDS011;3579;48.956;9.154;2022-08-19T02:57:04;3.37;;;3.07;;
7076;SDS011;3579;48.956;9.154;2022-08-19T02:59:31;3.37;;;3.07;;
7076;SDS011;3579;48.956;9.154;2022-08-19T03:01:57;3.50;;;3.20;;
7076;SDS011;3579;48.956;9.154;2022-08-19T03:04:23;3.93;;;3.30;;
7076;SDS011;3579;48.956;9.154;2022-08-19T03:06:49;3.87;;;3.57;;
7076;SDS011;3579;48.956;9.154;2022-08-19T03:09:16;3.37;;;3.10;;
7076;SDS011;3579;48.956;9.154;2022-08-19T03:11:44;3.80;;;3.50;;
7076;SDS011;3579;48.956;9.154;2022-08-19T03:14:11;3.40;;;3.10;;
7076;SDS011;3579;48.956;9.154;2022-08-19T03:16:45;3.37;;;3.07;;
7076;SDS011;3579;48.956;9.154;2022-08-19T03:19:16;3.80;;;3.50;;
7076;SDS011;3579;48.956;9.154;2022-08-19T03:21:44;3.70;;;3.40;;
7076;SDS011;3579;48.956;9.154;2022-08-19T03:24:11;3.67;;;3.27;;
7076;SDS011;3579;48.956;9.154;2022-08-19T03:26:43;3.97;;;3.60;;
7076;SDS011;3579;48.956;9.154;2022-08-19T03:29:13;3.97;;;3.63;;
7076;SDS011;3579;48.956;9.154;2022-08-19T03:31:41;3.70;;;3.40;;
7076;SDS011;3579;48.956;9.154;2022-08-19T03:34:08;3.70;;;3.40;;
7076;SDS011;3579;48.956;9.154;2022-08-19T03:36:36;3.17;;;2.97;;
7076;SDS011;3579;48.956;9.154;2022-08-19T03:39:03;3.50;;;3.20;;
7076;SDS011;3579;48.956;9.154;2022-08-19T03:41:31;3.40;;;3.10;;
7076;SDS011;3579;48.956;9.154;2022-08-19T03:43:58;3.57;;;3.27;;
7076;SDS011;3579;48.956;9.154;2022-08-19T03:46:26;3.80;;;3.50;;
7076;SDS011;3579;48.956;9.154;2022-08-19T03:48:56;3.63;;;3.33;;
7076;SDS011;3579;48.956;9.154;2022-08-19T03:51:24;3.50;;;3.20;;
7076;SDS011;3579;48.956;9.154;2022-08-19T03:53:59;3.80;;;3.50;;
7076;SDS011;3579;48.956;9.154;2022-08-19T03:56:26;3.87;;;3.47;;
7076;SDS011;3579;48.956;9.154;2022-08-19T03:58:54;3.43;;;3.20;;
7076;SDS011;3579;48.956;9.154;2022-08-19T04:01:23;3.47;;;3.17;;
7076;SDS011;3579;48.956;9.154;2022-08-19T04:03:51;3.70;;;3.40;;
7076;SDS011;3579;48.956;9.154;2022-08-19T04:06:20;3.57;;;3.27;;
7076;SDS011;3579;48.956;9.154;2022-08-19T04:08:49;3.80;;;3.40;;
7076;SDS011;3579;48.956;9.154;2022-08-19T04:11:17;3.40;;;3.10;;
7076;SDS011;3579;48.956;9.154;2022-08-19T04:13:48;3.40;;;3.10;;
7076;SDS011;3579;48.956;9.154;2022-08-19T04:16:17;3.27;;;3.03;;
7076;SDS011;3579;48.956;9.154;2022-08-19T04:18:45;4.00;;;3.70;;
7076;SDS011;3579;48.956;9.154;2022-08-19T04:21:17;3.57;;;3.27;;
7076;SDS011;3579;48.956;9.154;2022-08-19T04:23:45;3.53;;;3.20;;
7076;SDS011;3579;48.956;9.154;2022-08-19T04:26:15;3.73;;;3.43;;
7076;SDS011;3579;48.956;9.154;2022-08-19T04:28:44;3.83;;;3.53;;
7076;SDS011;3579;48.956;9.154;2022-08-19T04:31:14;3.57;;;3.27;;
7076;SDS011;3579;48.956;9.154;2022-08-19T04:33:42;3.70;;;3.30;;
7076;SDS011;3579;48.956;9.154;2022-08-19T04:36:15;3.80;;;3.50;;
7076;SDS011;3579;48.956;9.154;2022-08-19T04:38:48;4.00;;;3.70;;
7076;SDS011;3579;48.956;9.154;2022-08-19T04:41:18;3.77;;;3.47;;
7076;SDS011;3579;48.956;9.154;2022-08-19T04:44:03;4.03;;;3.50;;
7076;SDS011;3579;48.956;9.154;2022-08-19T04:46:29;3.97;;;3.60;;
7076;SDS011;3579;48.956;9.154;2022-08-19T04:49:00;4.50;;;4.07;;
7076;SDS011;3579;48.956;9.154;2022-08-19T04:51:28;4.53;;;4.13;;
7076;SDS011;3579;48.956;9.154;2022-08-19T04:53:56;4.53;;;4.13;;
7076;SDS011;3579;48.956;9.154;2022-08-19T04:56:24;5.73;;;4.20;;
7076;SDS011;3579;48.956;9.154;2022-08-19T04:58:52;4.23;;;3.93;;
7076;SDS011;3579;48.956;9.154;2022-08-19T05:01:21;5.37;;;4.63;;
7076;SDS011;3579;48.956;9.154;2022-08-19T05:03:48;5.00;;;4.50;;
7076;SDS011;3579;48.956;9.154;2022-08-19T05:06:15;4.80;;;4.40;;
7076;SDS011;3579;48.956;9.154;2022-08-19T05:08:42;5.07;;;4.60;;
7076;SDS011;3579;48.956;9.154;2022-08-19T05:11:10;6.47;;;4.60;;
7076;SDS011;3579;48.956;9.154;2022-08-19T05:13:45;5.30;;;4.80;;
7076;SDS011;3579;48.956;9.154;2022-08-19T05:16:14;5.23;;;4.73;;
7076;SDS011;3579;48.956;9.154;2022-08-19T05:18:42;5.63;;;5.13;;
7076;SDS011;3579;48.956;9.154;2022-08-19T05:21:27;6.20;;;5.60;;
7076;SDS011;3579;48.956;9.154;2022-08-19T05:24:13;6.97;;;5.73;;
7076;SDS011;3579;48.956;9.154;2022-08-19T05:26:41;7.83;;;6.97;;
7076;SDS011;3579;48.956;9.154;2022-08-19T05:29:13;8.73;;;7.70;;
7076;SDS011;3579;48.956;9.154;2022-08-19T05:31:41;7.80;;;6.97;;
7076;SDS011;3579;48.956;9.154;2022-08-19T05:34:07;7.93;;;6.63;;
7076;SDS011;3579;48.956;9.154;2022-08-19T05:36:38;10.73;;;9.73;;
7076;SDS011;3579;48.956;9.154;2022-08-19T05:39:07;11.70;;;10.07;;
7076;SDS011;3579;48.956;9.154;2022-08-19T05:41:35;8.67;;;7.83;;
7076;SDS011;3579;48.956;9.154;2022-08-19T05:44:06;12.03;;;10.87;;
7076;SDS011;3579;48.956;9.154;2022-08-19T05:46:34;12.00;;;10.80;;
7076;SDS011;3579;48.956;9.154;2022-08-19T05:49:03;10.20;;;9.20;;
7076;SDS011;3579;48.956;9.154;2022-08-19T05:51:32;12.73;;;11.43;;
7076;SDS011;3579;48.956;9.154;2022-08-19T05:54:00;11.27;;;10.20;;
7076;SDS011;3579;48.956;9.154;2022-08-19T05:56:27;12.03;;;10.83;;
7076;SDS011;3579;48.956;9.154;2022-08-19T05:58:57;10.90;;;9.90;;
7076;SDS011;3579;48.956;9.154;2022-08-19T06:01:25;11.30;;;10.07;;
7076;SDS011;3579;48.956;9.154;2022-08-19T06:03:51;10.57;;;9.53;;
7076;SDS011;3579;48.956;9.154;2022-08-19T06:06:18;10.60;;;9.70;;
7076;SDS011;3579;48.956;9.154;2022-08-19T06:08:45;10.43;;;9.43;;
7076;SDS011;3579;48.956;9.154;2022-08-19T06:11:18;11.40;;;10.40;;
7076;SDS011;3579;48.956;9.154;2022-08-19T06:13:50;11.40;;;9.97;;
7076;SDS011;3579;48.956;9.154;2022-08-19T06:16:18;13.57;;;12.17;;
7076;SDS011;3579;48.956;9.154;2022-08-19T06:18:49;13.20;;;11.80;;
7076;SDS011;3579;48.956;9.154;2022-08-19T06:21:18;12.83;;;11.63;;
7076;SDS011;3579;48.956;9.154;2022-08-19T06:23:47;12.00;;;10.70;;
7076;SDS011;3579;48.956;9.154;2022-08-19T06:26:15;12.43;;;11.27;;
7076;SDS011;3579;48.956;9.154;2022-08-19T06:28:42;13.17;;;11.87;;
7076;SDS011;3579;48.956;9.154;2022-08-19T06:31:13;14.33;;;12.80;;
7076;SDS011;3579;48.956;9.154;2022-08-19T06:33:40;13.07;;;11.67;;
7076;SDS011;3579;48.956;9.154;2022-08-19T06:36:07;13.20;;;11.17;;
7076;SDS011;3579;48.956;9.154;2022-08-19T06:38:41;15.20;;;13.80;;
7076;SDS011;3579;48.956;9.154;2022-08-19T06:41:08;15.07;;;13.57;;
7076;SDS011;3579;48.956;9.154;2022-08-19T06:43:35;15.77;;;14.23;;
7076;SDS011;3579;48.956;9.154;2022-08-19T06:46:01;18.37;;;14.20;;
7076;SDS011;3579;48.956;9.154;2022-08-19T06:48:29;16.87;;;15.07;;
7076;SDS011;3579;48.956;9.154;2022-08-19T06:50:55;16.93;;;14.67;;
7076;SDS011;3579;48.956;9.154;2022-08-19T06:53:21;15.97;;;14.37;;
7076;SDS011;3579;48.956;9.154;2022-08-19T06:55:47;18.37;;;14.90;;
7076;SDS011;3579;48.956;9.154;2022-08-19T06:58:13;15.43;;;13.80;;
7076;SDS011;3579;48.956;9.154;2022-08-19T07:00:39;15.80;;;14.17;;
7076;SDS011;3579;48.956;9.154;2022-08-19T07:03:05;15.07;;;13.57;;
7076;SDS011;3579;48.956;9.154;2022-08-19T07:05:32;15.90;;;14.20;;
7076;SDS011;3579;48.956;9.154;2022-08-19T07:08:02;15.37;;;13.80;;
7076;SDS011;3579;48.956;9.154;2022-08-19T07:10:31;15.87;;;13.73;;
7076;SDS011;3579;48.956;9.154;2022-08-19T07:12:58;17.13;;;13.53;;
7076;SDS011;3579;48.956;9.154;2022-08-19T07:15:24;14.47;;;12.93;;
7076;SDS011;3579;48.956;9.154;2022-08-19T07:17:50;15.67;;;13.00;;
7076;SDS011;3579;48.956;9.154;2022-08-19T07:20:16;14.93;;;13.33;;
7076;SDS011;3579;48.956;9.154;2022-08-19T07:22:42;15.43;;;12.70;;
7076;SDS011;3579;48.956;9.154;2022-08-19T07:25:08;14.93;;;13.00;;
7076;SDS011;3579;48.956;9.154;2022-08-19T07:27:35;15.33;;;13.73;;
7076;SDS011;3579;48.956;9.154;2022-08-19T07:30:02;13.87;;;12.03;;
7076;SDS011;3579;48.956;9.154;2022-08-19T07:32:30;13.63;;;12.23;;
7076;SDS011;3579;48.956;9.154;2022-08-19T07:34:56;15.33;;;12.40;;
7076;SDS011;3579;48.956;9.154;2022-08-19T07:37:23;12.53;;;11.23;;
7076;SDS011;3579;48.956;9.154;2022-08-19T07:39:52;14.10;;;12.63;;
7076;SDS011;3579;48.956;9.154;2022-08-19T07:42:17;14.33;;;12.80;;
7076;SDS011;3579;48.956;9.154;2022-08-19T07:44:46;14.20;;;12.80;;
7076;SDS011;3579;48.956;9.154;2022-08-19T07:47:12;14.47;;;12.97;;
7076;SDS011;3579;48.956;9.154;2022-08-19T07:49:40;13.47;;;12.00;;
7076;SDS011;3579;48.956;9.154;2022-08-19T07:52:08;16.27;;;12.43;;
7076;SDS011;3579;48.956;9.154;2022-08-19T07:54:36;14.27;;;12.53;;
7076;SDS011;3579;48.956;9.154;2022-08-19T07:57:04;15.63;;;12.40;;
7076;SDS011;3579;48.956;9.154;2022-08-19T07:59:31;14.03;;;11.47;;
7076;SDS011;3579;48.956;9.154;2022-08-19T08:01:57;15.93;;;12.57;;
7076;SDS011;3579;48.956;9.154;2022-08-19T08:04:26;15.40;;;12.70;;
7076;SDS011;3579;48.956;9.154;2022-08-19T08:07:11;13.47;;;11.57;;
7076;SDS011;3579;48.956;9.154;2022-08-19T08:09:55;13.83;;;12.40;;
7076;SDS011;3579;48.956;9.154;2022-08-19T08:12:25;14.47;;;12.97;;
7076;SDS011;3579;48.956;9.154;2022-08-19T08:14:57;15.50;;;13.23;;
7076;SDS011;3579;48.956;9.154;2022-08-19T08:17:28;16.33;;;12.73;;
7076;SDS011;3579;48.956;9.154;2022-08-19T08:19:56;15.37;;;12.73;;
7076;SDS011;3579;48.956;9.154;2022-08-19T08:22:23;19.20;;;12.77;;
7076;SDS011;3579;48.956;9.154;2022-08-19T08:25:18;15.83;;;12.97;;
7076;SDS011;3579;48.956;9.154;2022-08-19T08:27:46;14.00;;;12.40;;
7076;SDS011;3579;48.956;9.154;2022-08-19T08:30:18;13.83;;;12.43;;
7076;SDS011;3579;48.956;9.154;2022-08-19T08:32:46;14.73;;;13.23;;
7076;SDS011;3579;48.956;9.154;2022-08-19T08:35:17;14.20;;;12.40;;
7076;SDS011;3579;48.956;9.154;2022-08-19T08:37:55;16.40;;;13.23;;
7076;SDS011;3579;48.956;9.154;2022-08-19T08:40:47;15.50;;;13.50;;
7076;SDS011;3579;48.956;9.154;2022-08-19T08:43:28;14.83;;;13.33;;
7076;SDS011;3579;48.956;9.154;2022-08-19T08:51:25;14.47;;;12.67;;
7076;SDS011;3579;48.956;9.154;2022-08-19T08:54:01;15.17;;;12.67;;
7076;SDS011;3579;48.956;9.154;2022-08-19T08:56:37;14.80;;;12.83;;
7076;SDS011;3579;48.956;9.154;2022-08-19T08:59:25;16.73;;;12.30;;
7076;SDS011;3579;48.956;9.154;2022-08-19T09:01:56;18.33;;;12.17;;
7076;SDS011;3579;48.956;9.154;2022-08-19T09:04:22;14.57;;;12.90;;
7076;SDS011;3579;48.956;9.154;2022-08-19T09:09:40;15.63;;;12.33;;
7076;SDS011;3579;48.956;9.154;2022-08-19T09:12:26;17.60;;;12.80;;
7076;SDS011;3579;48.956;9.154;2022-08-19T09:15:09;12.60;;;11.27;;
7076;SDS011;3579;48.956;9.154;2022-08-19T09:17:49;14.97;;;11.87;;
7076;SDS011;3579;48.956;9.154;2022-08-19T09:20:20;16.37;;;11.83;;
7076;SDS011;3579;48.956;9.154;2022-08-19T09:22:49;14.13;;;11.27;;
7076;SDS011;3579;48.956;9.154;2022-08-19T09:25:18;14.73;;;11.03;;
7076;SDS011;3579;48.956;9.154;2022-08-19T09:27:50;14.37;;;10.53;;
7076;SDS011;3579;48.956;9.154;2022-08-19T09:30:26;15.37;;;11.30;;
7076;SDS011;3579;48.956;9.154;2022-08-19T09:32:57;19.53;;;11.87;;
7076;SDS011;3579;48.956;9.154;2022-08-19T09:35:25;17.00;;;11.40;;
7076;SDS011;3579;48.956;9.154;2022-08-19T09:37:54;13.57;;;10.93;;
7076;SDS011;3579;48.956;9.154;2022-08-19T09:40:22;13.30;;;10.97;;
7076;SDS011;3579;48.956;9.154;2022-08-19T09:42:48;16.60;;;10.07;;
7076;SDS011;3579;48.956;9.154;2022-08-19T09:45:15;15.17;;;10.80;;
7076;SDS011;3579;48.956;9.154;2022-08-19T09:47:45;12.87;;;11.23;;
7076;SDS011;3579;48.956;9.154;2022-08-19T09:50:12;13.30;;;10.40;;
7076;SDS011;3579;48.956;9.154;2022-08-19T09:52:39;14.23;;;10.40;;
7076;SDS011;3579;48.956;9.154;2022-08-19T09:55:08;15.17;;;10.17;;
7076;SDS011;3579;48.956;9.154;2022-08-19T09:57:36;13.87;;;10.93;;
7076;SDS011;3579;48.956;9.154;2022-08-19T10:00:05;14.77;;;9.90;;
7076;SDS011;3579;48.956;9.154;2022-08-19T10:02:33;13.97;;;10.83;;
7076;SDS011;3579;48.956;9.154;2022-08-19T10:05:00;12.13;;;10.40;;
7076;SDS011;3579;48.956;9.154;2022-08-19T10:07:45;13.67;;;9.70;;
7076;SDS011;3579;48.956;9.154;2022-08-19T10:10:12;11.33;;;9.10;;
7076;SDS011;3579;48.956;9.154;2022-08-19T10:12:38;13.00;;;8.93;;
7076;SDS011;3579;48.956;9.154;2022-08-19T10:15:05;14.27;;;9.40;;
7076;SDS011;3579;48.956;9.154;2022-08-19T10:17:32;11.10;;;9.30;;
7076;SDS011;3579;48.956;9.154;2022-08-19T10:20:00;13.23;;;8.73;;
7076;SDS011;3579;48.956;9.154;2022-08-19T10:22:31;12.37;;;8.97;;
7076;SDS011;3579;48.956;9.154;2022-08-19T10:24:59;11.17;;;8.73;;
7076;SDS011;3579;48.956;9.154;2022-08-19T10:27:26;9.47;;;8.27;;
7076;SDS011;3579;48.956;9.154;2022-08-19T10:29:52;13.90;;;7.77;;
7076;SDS011;3579;48.956;9.154;2022-08-19T10:32:18;10.77;;;7.23;;
7076;SDS011;3579;48.956;9.154;2022-08-19T10:34:47;9.63;;;7.13;;
7076;SDS011;3579;48.956;9.154;2022-08-19T10:37:15;11.67;;;6.07;;
7076;SDS011;3579;48.956;9.154;2022-08-19T10:39:43;8.10;;;6.10;;
7076;SDS011;3579;48.956;9.154;2022-08-19T10:42:13;8.60;;;6.30;;
7076;SDS011;3579;48.956;9.154;2022-08-19T10:44:41;7.03;;;6.00;;
7076;SDS011;3579;48.956;9.154;2022-08-19T10:47:08;8.53;;;6.30;;
7076;SDS011;3579;48.956;9.154;2022-08-19T10:49:35;6.10;;;5.50;;
7076;SDS011;3579;48.956;9.154;2022-08-19T10:52:21;7.00;;;5.47;;
7076;SDS011;3579;48.956;9.154;2022-08-19T10:55:02;6.33;;;5.73;;
7076;SDS011;3579;48.956;9.154;2022-08-19T10:57:49;6.93;;;6.00;;
7076;SDS011;3579;48.956;9.154;2022-08-19T11:00:15;6.97;;;5.53;;
7076;SDS011;3579;48.956;9.154;2022-08-19T11:02:41;7.40;;;5.53;;
7076;SDS011;3579;48.956;9.154;2022-08-19T11:05:08;6.67;;;5.90;;
7076;SDS011;3579;48.956;9.154;2022-08-19T11:07:38;8.27;;;5.80;;
7076;SDS011;3579;48.956;9.154;2022-08-19T11:10:05;6.57;;;5.57;;
7076;SDS011;3579;48.956;9.154;2022-08-19T11:12:38;8.90;;;5.73;;
7076;SDS011;3579;48.956;9.154;2022-08-19T11:15:06;6.37;;;5.63;;
7076;SDS011;3579;48.956;9.154;2022-08-19T11:17:39;6.80;;;5.70;;
7076;SDS011;3579;48.956;9.154;2022-08-19T11:20:09;9.07;;;5.90;;
7076;SDS011;3579;48.956;9.154;2022-08-19T11:22:37;7.27;;;5.87;;
7076;SDS011;3579;48.956;9.154;2022-08-19T11:25:04;6.70;;;5.70;;
7076;SDS011;3579;48.956;9.154;2022-08-19T11:27:30;8.90;;;5.80;;
7076;SDS011;3579;48.956;9.154;2022-08-19T11:29:57;6.80;;;6.13;;
7076;SDS011;3579;48.956;9.154;2022-08-19T11:32:23;10.17;;;6.07;;
7076;SDS011;3579;48.956;9.154;2022-08-19T11:34:50;7.10;;;6.20;;
7076;SDS011;3579;48.956;9.154;2022-08-19T11:37:16;6.80;;;6.13;;
7076;SDS011;3579;48.956;9.154;2022-08-19T11:39:42;8.50;;;5.83;;
7076;SDS011;3579;48.956;9.154;2022-08-19T11:42:09;8.53;;;6.17;;
7076;SDS011;3579;48.956;9.154;2022-08-19T11:44:53;8.97;;;6.07;;
7076;SDS011;3579;48.956;9.154;2022-08-19T11:47:20;7.50;;;6.30;;
7076;SDS011;3579;48.956;9.154;2022-08-19T11:49:51;7.43;;;6.00;;
7076;SDS011;3579;48.956;9.154;2022-08-19T11:52:18;6.43;;;5.83;;
7076;SDS011;3579;48.956;9.154;2022-08-19T11:54:45;9.23;;;6.37;;
7076;SDS011;3579;48.956;9.154;2022-08-19T11:57:13;6.53;;;5.83;;
7076;SDS011;3579;48.956;9.154;2022-08-19T11:59:46;8.07;;;6.03;;
7076;SDS011;3579;48.956;9.154;2022-08-19T12:02:15;8.23;;;6.07;;
7076;SDS011;3579;48.956;9.154;2022-08-19T12:04:43;9.00;;;6.53;;
7076;SDS011;3579;48.956;9.154;2022-08-19T12:07:10;7.37;;;6.13;;
7076;SDS011;3579;48.956;9.154;2022-08-19T12:09:36;9.03;;;6.10;;
7076;SDS011;3579;48.956;9.154;2022-08-19T12:12:04;6.70;;;6.10;;
7076;SDS011;3579;48.956;9.154;2022-08-19T12:14:31;6.83;;;6.20;;
7076;SDS011;3579;48.956;9.154;2022-08-19T12:17:01;7.03;;;6.13;;
7076;SDS011;3579;48.956;9.154;2022-08-19T12:19:35;6.60;;;5.90;;
7076;SDS011;3579;48.956;9.154;2022-08-19T12:22:02;12.30;;;6.47;;
7076;SDS011;3579;48.956;9.154;2022-08-19T12:24:32;6.30;;;5.67;;
7076;SDS011;3579;48.956;9.154;2022-08-19T12:27:01;8.53;;;5.90;;
7076;SDS011;3579;48.956;9.154;2022-08-19T12:29:34;6.57;;;5.80;;
7076;SDS011;3579;48.956;9.154;2022-08-19T12:32:07;8.53;;;6.00;;
7076;SDS011;3579;48.956;9.154;2022-08-19T12:34:34;8.63;;;6.40;;
7076;SDS011;3579;48.956;9.154;2022-08-19T12:37:03;6.40;;;5.80;;
7076;SDS011;3579;48.956;9.154;2022-08-19T12:39:34;6.73;;;6.10;;
7076;SDS011;3579;48.956;9.154;2022-08-19T12:42:04;6.73;;;6.00;;
7076;SDS011;3579;48.956;9.154;2022-08-19T12:44:31;6.77;;;5.67;;
7076;SDS011;3579;48.956;9.154;2022-08-19T12:47:01;7.40;;;5.93;;
7076;SDS011;3579;48.956;9.154;2022-08-19T12:49:28;5.73;;;5.00;;
7076;SDS011;3579;48.956;9.154;2022-08-19T12:51:56;5.90;;;5.30;;
7076;SDS011;3579;48.956;9.154;2022-08-19T12:54:27;6.40;;;5.07;;
7076;SDS011;3579;48.956;9.154;2022-08-19T12:56:56;6.60;;;4.90;;
7076;SDS011;3579;48.956;9.154;2022-08-19T12:59:24;5.87;;;4.93;;
7076;SDS011;3579;48.956;9.154;2022-08-19T13:01:51;6.47;;;4.93;;
7076;SDS011;3579;48.956;9.154;2022-08-19T13:04:17;9.30;;;5.20;;
7076;SDS011;3579;48.956;9.154;2022-08-19T13:06:44;7.00;;;4.60;;
7076;SDS011;3579;48.956;9.154;2022-08-19T13:09:10;5.07;;;4.40;;
7076;SDS011;3579;48.956;9.154;2022-08-19T13:11:36;5.40;;;4.90;;
7076;SDS011;3579;48.956;9.154;2022-08-19T13:14:03;8.13;;;5.20;;
7076;SDS011;3579;48.956;9.154;2022-08-19T13:16:31;6.60;;;4.50;;
7076;SDS011;3579;48.956;9.154;2022-08-19T13:18:58;5.13;;;4.63;;
7076;SDS011;3579;48.956;9.154;2022-08-19T13:21:26;6.37;;;4.93;;
7076;SDS011;3579;48.956;9.154;2022-08-19T13:23:55;6.63;;;4.57;;
7076;SDS011;3579;48.956;9.154;2022-08-19T13:26:21;7.97;;;4.67;;
7076;SDS011;3579;48.956;9.154;2022-08-19T13:28:48;6.23;;;4.50;;
7076;SDS011;3579;48.956;9.154;2022-08-19T13:31:33;6.30;;;4.70;;
7076;SDS011;3579;48.956;9.154;2022-08-19T13:34:25;6.40;;;4.40;;
7076;SDS011;3579;48.956;9.154;2022-08-19T13:36:55;4.90;;;4.20;;
7076;SDS011;3579;48.956;9.154;2022-08-19T13:39:21;6.37;;;4.63;;
7076;SDS011;3579;48.956;9.154;2022-08-19T13:41:49;8.10;;;4.70;;
7076;SDS011;3579;48.956;9.154;2022-08-19T13:44:16;6.20;;;4.73;;
7076;SDS011;3579;48.956;9.154;2022-08-19T13:46:46;6.23;;;5.13;;
7076;SDS011;3579;48.956;9.154;2022-08-19T13:49:14;5.93;;;5.27;;
7076;SDS011;3579;48.956;9.154;2022-08-19T13:51:42;7.30;;;4.80;;
7076;SDS011;3579;48.956;9.154;2022-08-19T13:54:08;6.90;;;5.03;;
7076;SDS011;3579;48.956;9.154;2022-08-19T13:56:39;5.73;;;4.60;;
7076;SDS011;3579;48.956;9.154;2022-08-19T13:59:07;5.60;;;4.80;;
7076;SDS011;3579;48.956;9.154;2022-08-19T14:01:33;6.90;;;5.13;;
7076;SDS011;3579;48.956;9.154;2022-08-19T14:04:00;7.53;;;5.13;;
7076;SDS011;3579;48.956;9.154;2022-08-19T14:06:27;5.97;;;4.73;;
7076;SDS011;3579;48.956;9.154;2022-08-19T14:08:53;9.67;;;5.20;;
7076;SDS011;3579;48.956;9.154;2022-08-19T14:11:20;5.27;;;4.80;;
7076;SDS011;3579;48.956;9.154;2022-08-19T14:13:48;7.17;;;4.50;;
7076;SDS011;3579;48.956;9.154;2022-08-19T14:16:15;5.57;;;4.73;;
7076;SDS011;3579;48.956;9.154;2022-08-19T14:18:42;7.83;;;5.00;;
7076;SDS011;3579;48.956;9.154;2022-08-19T14:21:17;9.07;;;4.43;;
7076;SDS011;3579;48.956;9.154;2022-08-19T14:23:47;6.50;;;5.37;;
7076;SDS011;3579;48.956;9.154;2022-08-19T14:26:15;6.77;;;5.30;;
7076;SDS011;3579;48.956;9.154;2022-08-19T14:28:42;8.80;;;5.10;;
7076;SDS011;3579;48.956;9.154;2022-08-19T14:31:09;9.10;;;4.90;;
7076;SDS011;3579;48.956;9.154;2022-08-19T14:33:37;11.23;;;5.17;;
7076;SDS011;3579;48.956;9.154;2022-08-19T14:36:03;18.17;;;5.53;;
7076;SDS011;3579;48.956;9.154;2022-08-19T14:38:30;7.03;;;4.77;;
7076;SDS011;3579;48.956;9.154;2022-08-19T14:43:53;6.33;;;4.73;;
7076;SDS011;3579;48.956;9.154;2022-08-19T14:46:21;8.73;;;4.43;;
7076;SDS011;3579;48.956;9.154;2022-08-19T14:48:49;5.77;;;4.80;;
7076;SDS011;3579;48.956;9.154;2022-08-19T14:51:16;8.10;;;4.80;;
7076;SDS011;3579;48.956;9.154;2022-08-19T14:53:44;6.83;;;4.60;;
7076;SDS011;3579;48.956;9.154;2022-08-19T14:56:14;8.97;;;5.20;;
7076;SDS011;3579;48.956;9.154;2022-08-19T14:58:43;6.07;;;4.63;;
7076;SDS011;3579;48.956;9.154;2022-08-19T15:01:09;4.83;;;4.33;;
7076;SDS011;3579;48.956;9.154;2022-08-19T15:03:38;5.43;;;4.63;;
7076;SDS011;3579;48.956;9.154;2022-08-19T15:06:06;5.60;;;4.33;;
7076;SDS011;3579;48.956;9.154;2022-08-19T15:08:33;6.97;;;4.57;;
7076;SDS011;3579;48.956;9.154;2022-08-19T15:11:01;8.80;;;4.50;;
7076;SDS011;3579;48.956;9.154;2022-08-19T15:13:27;7.17;;;4.47;;
7076;SDS011;3579;48.956;9.154;2022-08-19T15:15:55;7.57;;;4.40;;
7076;SDS011;3579;48.956;9.154;2022-08-19T15:18:22;5.33;;;4.80;;
7076;SDS011;3579;48.956;9.154;2022-08-19T15:20:48;4.57;;;4.17;;
7076;SDS011;3579;48.956;9.154;2022-08-19T15:23:15;6.47;;;4.90;;
7076;SDS011;3579;48.956;9.154;2022-08-19T15:25:42;8.03;;;4.50;;
7076;SDS011;3579;48.956;9.154;2022-08-19T15:28:09;5.60;;;4.57;;
7076;SDS011;3579;48.956;9.154;2022-08-19T15:30:37;5.57;;;4.07;;